Sanford, Florida
Current Conditions -  °F | °C
As of 12:53 AM on Friday 31 Oct 2014 (Local Time) from KSFB Reporting Station
Few Clouds Few Clouds  
Wind Chill: 70°   Ceiling: Unl
Heat Index: 70°   Visibility: 10mi
Dew Point: 64°   Wind: 5mph
Humidity: 81%   Direction: 360°N
Pressure: 29.88"   Gusts: NA
Location:  28.81°N, 81.27°W
Report Text: KSFB 310453Z AUTO 36004KT 10SM FEW080 21/18 A2988 RMK AO2 SLP116 T02110178 402940172
Loading
Personal Weather Stations






























Interactive Weather Map
Tropical Storm Tracking
New forecast layout! Learn more

10-Day Weather Forecast

Advertisements
Track Severe Weather on mobile